sensor_id;sensor_type;location;lat;lon;timestamp;pressure;altitude;pressure_sealevel;temperature;humidity
9249;BME280;4660;41.768;26.198;2023-06-22T00:01:52;101008.78;;;22.91;100.00
9249;BME280;4660;41.768;26.198;2023-06-22T00:04:18;101011.75;;;22.76;100.00
9249;BME280;4660;41.768;26.198;2023-06-22T00:06:43;100995.72;;;22.73;100.00
9249;BME280;4660;41.768;26.198;2023-06-22T00:09:09;101018.50;;;22.73;100.00
9249;BME280;4660;41.768;26.198;2023-06-22T00:11:36;101010.50;;;22.65;100.00
9249;BME280;4660;41.768;26.198;2023-06-22T00:14:02;101009.47;;;22.46;100.00
9249;BME280;4660;41.768;26.198;2023-06-22T00:16:28;101016.03;;;22.45;100.00
9249;BME280;4660;41.768;26.198;2023-06-22T00:18:53;101030.97;;;22.43;100.00
9249;BME280;4660;41.768;26.198;2023-06-22T00:21:19;101038.34;;;22.49;100.00
9249;BME280;4660;41.768;26.198;2023-06-22T00:23:47;101036.50;;;22.36;100.00
9249;BME280;4660;41.768;26.198;2023-06-22T00:26:13;101050.38;;;22.35;100.00
9249;BME280;4660;41.768;26.198;2023-06-22T00:28:39;101053.97;;;22.29;100.00
9249;BME280;4660;41.768;26.198;2023-06-22T00:31:04;101044.25;;;22.19;100.00
9249;BME280;4660;41.768;26.198;2023-06-22T00:33:30;101056.50;;;22.23;100.00
9249;BME280;4660;41.768;26.198;2023-06-22T00:35:56;101059.25;;;22.17;100.00
9249;BME280;4660;41.768;26.198;2023-06-22T00:38:22;101066.59;;;22.10;100.00
9249;BME280;4660;41.768;26.198;2023-06-22T00:40:47;101058.50;;;21.82;100.00
9249;BME280;4660;41.768;26.198;2023-06-22T00:43:13;101057.16;;;21.51;100.00
9249;BME280;4660;41.768;26.198;2023-06-22T00:45:38;101058.22;;;21.15;100.00
9249;BME280;4660;41.768;26.198;2023-06-22T00:48:05;101056.59;;;20.86;100.00
9249;BME280;4660;41.768;26.198;2023-06-22T00:50:32;101061.00;;;20.59;100.00
9249;BME280;4660;41.768;26.198;2023-06-22T00:53:08;101058.59;;;20.78;100.00
9249;BME280;4660;41.768;26.198;2023-06-22T00:55:42;101059.75;;;20.90;100.00
9249;BME280;4660;41.768;26.198;2023-06-22T00:58:13;101056.06;;;20.76;100.00
9249;BME280;4660;41.768;26.198;2023-06-22T01:00:39;101022.41;;;20.76;100.00
9249;BME280;4660;41.768;26.198;2023-06-22T01:03:05;101054.75;;;21.00;100.00
9249;BME280;4660;41.768;26.198;2023-06-22T01:05:35;101055.84;;;21.06;100.00
9249;BME280;4660;41.768;26.198;2023-06-22T01:08:08;101045.94;;;21.05;100.00
9249;BME280;4660;41.768;26.198;2023-06-22T01:11:14;101058.16;;;21.02;100.00
9249;BME280;4660;41.768;26.198;2023-06-22T01:13:56;101054.44;;;20.82;100.00
9249;BME280;4660;41.768;26.198;2023-06-22T01:16:27;101065.97;;;20.77;100.00
9249;BME280;4660;41.768;26.198;2023-06-22T01:18:55;101051.22;;;20.72;100.00
9249;BME280;4660;41.768;26.198;2023-06-22T01:21:24;101052.28;;;20.77;100.00
9249;BME280;4660;41.768;26.198;2023-06-22T01:26:43;101056.28;;;20.75;100.00
9249;BME280;4660;41.768;26.198;2023-06-22T01:29:18;101059.84;;;20.47;100.00
9249;BME280;4660;41.768;26.198;2023-06-22T01:31:46;101034.91;;;20.35;100.00
9249;BME280;4660;41.768;26.198;2023-06-22T01:34:13;101060.69;;;20.48;100.00
9249;BME280;4660;41.768;26.198;2023-06-22T01:36:40;101075.88;;;20.50;100.00
9249;BME280;4660;41.768;26.198;2023-06-22T01:39:07;101067.06;;;20.55;100.00
9249;BME280;4660;41.768;26.198;2023-06-22T01:41:36;101060.41;;;20.64;100.00
9249;BME280;4660;41.768;26.198;2023-06-22T01:44:05;101053.13;;;20.50;100.00
9249;BME280;4660;41.768;26.198;2023-06-22T01:46:34;101049.88;;;20.40;100.00
9249;BME280;4660;41.768;26.198;2023-06-22T01:49:01;101047.50;;;20.30;100.00
9249;BME280;4660;41.768;26.198;2023-06-22T01:51:27;101044.88;;;20.43;100.00
9249;BME280;4660;41.768;26.198;2023-06-22T01:53:53;101031.34;;;20.35;100.00
9249;BME280;4660;41.768;26.198;2023-06-22T01:56:18;101032.53;;;20.26;100.00
9249;BME280;4660;41.768;26.198;2023-06-22T01:58:50;101031.88;;;20.24;100.00
9249;BME280;4660;41.768;26.198;2023-06-22T02:01:20;101031.53;;;20.33;100.00
9249;BME280;4660;41.768;26.198;2023-06-22T02:04:20;101032.06;;;20.44;100.00
9249;BME280;4660;41.768;26.198;2023-06-22T02:06:47;101035.59;;;20.16;100.00
9249;BME280;4660;41.768;26.198;2023-06-22T02:09:19;101039.38;;;20.15;100.00
9249;BME280;4660;41.768;26.198;2023-06-22T02:11:47;101046.41;;;20.03;100.00
9249;BME280;4660;41.768;26.198;2023-06-22T02:14:14;101056.22;;;19.97;100.00
9249;BME280;4660;41.768;26.198;2023-06-22T02:16:41;101059.78;;;19.98;100.00
9249;BME280;4660;41.768;26.198;2023-06-22T02:19:07;101063.63;;;20.03;100.00
9249;BME280;4660;41.768;26.198;2023-06-22T02:21:33;101064.13;;;19.92;100.00
9249;BME280;4660;41.768;26.198;2023-06-22T02:23:59;101065.03;;;19.78;100.00
9249;BME280;4660;41.768;26.198;2023-06-22T02:26:25;101057.25;;;19.75;100.00
9249;BME280;4660;41.768;26.198;2023-06-22T02:28:52;101056.19;;;19.76;100.00
9249;BME280;4660;41.768;26.198;2023-06-22T02:31:18;101058.34;;;19.81;100.00
9249;BME280;4660;41.768;26.198;2023-06-22T02:33:45;101052.63;;;19.97;100.00
9249;BME280;4660;41.768;26.198;2023-06-22T02:36:11;101060.00;;;20.18;100.00
9249;BME280;4660;41.768;26.198;2023-06-22T02:38:40;101060.00;;;20.18;100.00
9249;BME280;4660;41.768;26.198;2023-06-22T02:41:14;101080.94;;;20.11;100.00
9249;BME280;4660;41.768;26.198;2023-06-22T02:43:46;101085.94;;;20.07;100.00
9249;BME280;4660;41.768;26.198;2023-06-22T02:46:13;101088.84;;;20.05;100.00
9249;BME280;4660;41.768;26.198;2023-06-22T02:48:41;101086.72;;;20.01;100.00
9249;BME280;4660;41.768;26.198;2023-06-22T02:51:07;101089.53;;;20.08;100.00
9249;BME280;4660;41.768;26.198;2023-06-22T02:53:33;101053.34;;;19.84;100.00
9249;BME280;4660;41.768;26.198;2023-06-22T02:55:58;101090.31;;;20.01;100.00
9249;BME280;4660;41.768;26.198;2023-06-22T02:58:26;101080.94;;;20.11;100.00
9249;BME280;4660;41.768;26.198;2023-06-22T03:00:52;101089.41;;;20.16;100.00
9249;BME280;4660;41.768;26.198;2023-06-22T03:03:19;101087.09;;;20.19;100.00
9249;BME280;4660;41.768;26.198;2023-06-22T03:05:44;101097.41;;;20.17;100.00
9249;BME280;4660;41.768;26.198;2023-06-22T03:08:10;101088.84;;;20.27;100.00
9249;BME280;4660;41.768;26.198;2023-06-22T03:10:35;101093.09;;;20.29;100.00
9249;BME280;4660;41.768;26.198;2023-06-22T03:13:01;101093.81;;;20.38;100.00
9249;BME280;4660;41.768;26.198;2023-06-22T03:15:26;101095.91;;;20.15;100.00
9249;BME280;4660;41.768;26.198;2023-06-22T03:17:54;101104.75;;;20.17;100.00
9249;BME280;4660;41.768;26.198;2023-06-22T03:20:20;101103.31;;;20.21;100.00
9249;BME280;4660;41.768;26.198;2023-06-22T03:22:46;101105.59;;;20.17;100.00
9249;BME280;4660;41.768;26.198;2023-06-22T03:25:11;101098.56;;;20.08;100.00
9249;BME280;4660;41.768;26.198;2023-06-22T03:27:41;101104.22;;;20.28;100.00
9249;BME280;4660;41.768;26.198;2023-06-22T03:30:09;101104.00;;;20.44;100.00
9249;BME280;4660;41.768;26.198;2023-06-22T03:32:35;101109.31;;;20.52;100.00
9249;BME280;4660;41.768;26.198;2023-06-22T03:35:01;101100.28;;;20.52;100.00
9249;BME280;4660;41.768;26.198;2023-06-22T03:37:27;101109.47;;;20.44;100.00
9249;BME280;4660;41.768;26.198;2023-06-22T03:39:53;101108.84;;;20.49;100.00
9249;BME280;4660;41.768;26.198;2023-06-22T03:42:19;101110.88;;;20.61;100.00
9249;BME280;4660;41.768;26.198;2023-06-22T03:44:44;101107.59;;;20.73;100.00
9249;BME280;4660;41.768;26.198;2023-06-22T03:47:10;101107.03;;;20.56;100.00
9249;BME280;4660;41.768;26.198;2023-06-22T03:49:36;101111.78;;;20.47;100.00
9249;BME280;4660;41.768;26.198;2023-06-22T03:52:02;101111.03;;;20.81;100.00
9249;BME280;4660;41.768;26.198;2023-06-22T03:54:29;101107.59;;;21.07;100.00
9249;BME280;4660;41.768;26.198;2023-06-22T03:56:56;101116.59;;;20.95;100.00
9249;BME280;4660;41.768;26.198;2023-06-22T03:59:22;101109.22;;;20.95;100.00
9249;BME280;4660;41.768;26.198;2023-06-22T04:01:47;101109.44;;;20.94;100.00
9249;BME280;4660;41.768;26.198;2023-06-22T04:04:13;101100.53;;;20.85;100.00
9249;BME280;4660;41.768;26.198;2023-06-22T04:06:39;101102.22;;;20.86;100.00
9249;BME280;4660;41.768;26.198;2023-06-22T04:09:06;101096.31;;;20.82;100.00
9249;BME280;4660;41.768;26.198;2023-06-22T04:11:31;101108.88;;;20.77;100.00
9249;BME280;4660;41.768;26.198;2023-06-22T04:13:57;101109.34;;;20.80;100.00
9249;BME280;4660;41.768;26.198;2023-06-22T04:16:22;101106.13;;;20.77;100.00
9249;BME280;4660;41.768;26.198;2023-06-22T04:18:48;101116.84;;;20.72;100.00
9249;BME280;4660;41.768;26.198;2023-06-22T04:21:13;101116.94;;;20.85;100.00
9249;BME280;4660;41.768;26.198;2023-06-22T04:23:39;101116.69;;;20.80;100.00
9249;BME280;4660;41.768;26.198;2023-06-22T04:26:04;101108.28;;;20.81;100.00
9249;BME280;4660;41.768;26.198;2023-06-22T04:28:30;101103.91;;;20.87;100.00
9249;BME280;4660;41.768;26.198;2023-06-22T04:31:01;101120.28;;;21.08;100.00
9249;BME280;4660;41.768;26.198;2023-06-22T04:33:27;101119.81;;;21.33;100.00
9249;BME280;4660;41.768;26.198;2023-06-22T04:35:54;101124.66;;;21.31;100.00
9249;BME280;4660;41.768;26.198;2023-06-22T04:38:22;101120.94;;;21.45;100.00
9249;BME280;4660;41.768;26.198;2023-06-22T04:40:48;101117.31;;;21.38;100.00
9249;BME280;4660;41.768;26.198;2023-06-22T04:43:14;101119.47;;;21.49;100.00
9249;BME280;4660;41.768;26.198;2023-06-22T04:45:40;101119.16;;;21.72;100.00
9249;BME280;4660;41.768;26.198;2023-06-22T04:48:06;101139.06;;;22.07;100.00
9249;BME280;4660;41.768;26.198;2023-06-22T04:50:31;101133.88;;;22.25;100.00
9249;BME280;4660;41.768;26.198;2023-06-22T04:52:57;101144.19;;;22.10;100.00
9249;BME280;4660;41.768;26.198;2023-06-22T04:55:23;101135.06;;;22.03;100.00
9249;BME280;4660;41.768;26.198;2023-06-22T04:57:51;101146.44;;;22.07;100.00
9249;BME280;4660;41.768;26.198;2023-06-22T05:00:17;101143.06;;;22.05;100.00
9249;BME280;4660;41.768;26.198;2023-06-22T05:02:47;101152.56;;;22.02;100.00
9249;BME280;4660;41.768;26.198;2023-06-22T05:05:13;101151.34;;;22.11;100.00
9249;BME280;4660;41.768;26.198;2023-06-22T05:07:46;101157.31;;;22.48;100.00
9249;BME280;4660;41.768;26.198;2023-06-22T05:10:17;101157.78;;;22.65;100.00
9249;BME280;4660;41.768;26.198;2023-06-22T05:12:43;101137.94;;;22.69;100.00
9249;BME280;4660;41.768;26.198;2023-06-22T05:15:09;101156.50;;;23.07;100.00
9249;BME280;4660;41.768;26.198;2023-06-22T05:17:36;101158.84;;;23.23;100.00
9249;BME280;4660;41.768;26.198;2023-06-22T05:20:02;101159.47;;;23.19;100.00
9249;BME280;4660;41.768;26.198;2023-06-22T05:22:31;101152.94;;;23.06;100.00
9249;BME280;4660;41.768;26.198;2023-06-22T05:24:57;101161.16;;;23.00;100.00
9249;BME280;4660;41.768;26.198;2023-06-22T05:27:22;101172.19;;;22.87;100.00
9249;BME280;4660;41.768;26.198;2023-06-22T05:29:48;101153.13;;;22.78;100.00
9249;BME280;4660;41.768;26.198;2023-06-22T05:32:13;101158.84;;;23.03;100.00
9249;BME280;4660;41.768;26.198;2023-06-22T05:34:39;101166.03;;;23.18;100.00
9249;BME280;4660;41.768;26.198;2023-06-22T05:37:05;101173.19;;;23.25;100.00
9249;BME280;4660;41.768;26.198;2023-06-22T05:39:31;101169.38;;;23.33;100.00
9249;BME280;4660;41.768;26.198;2023-06-22T05:41:57;101172.06;;;23.53;100.00
9249;BME280;4660;41.768;26.198;2023-06-22T05:44:22;101180.50;;;23.65;100.00
9249;BME280;4660;41.768;26.198;2023-06-22T05:46:48;101175.41;;;23.81;100.00
9249;BME280;4660;41.768;26.198;2023-06-22T05:49:14;101175.75;;;23.92;100.00
9249;BME280;4660;41.768;26.198;2023-06-22T05:51:40;101170.41;;;24.10;100.00
9249;BME280;4660;41.768;26.198;2023-06-22T05:54:06;101167.53;;;24.30;100.00
9249;BME280;4660;41.768;26.198;2023-06-22T05:56:31;101173.38;;;24.47;100.00
9249;BME280;4660;41.768;26.198;2023-06-22T05:58:57;101166.66;;;24.36;100.00
9249;BME280;4660;41.768;26.198;2023-06-22T06:01:22;101178.44;;;24.50;100.00
9249;BME280;4660;41.768;26.198;2023-06-22T06:03:48;101152.81;;;24.49;100.00
9249;BME280;4660;41.768;26.198;2023-06-22T06:06:15;101168.63;;;24.60;100.00
9249;BME280;4660;41.768;26.198;2023-06-22T06:08:41;101171.84;;;24.82;100.00
9249;BME280;4660;41.768;26.198;2023-06-22T06:11:07;101170.59;;;24.78;100.00
9249;BME280;4660;41.768;26.198;2023-06-22T06:13:32;101158.09;;;24.82;100.00
9249;BME280;4660;41.768;26.198;2023-06-22T06:15:58;101159.38;;;24.80;100.00
9249;BME280;4660;41.768;26.198;2023-06-22T06:18:24;101175.66;;;24.81;100.00
9249;BME280;4660;41.768;26.198;2023-06-22T06:20:50;101179.41;;;24.93;100.00
9249;BME280;4660;41.768;26.198;2023-06-22T06:23:15;101169.22;;;24.94;100.00
9249;BME280;4660;41.768;26.198;2023-06-22T06:25:41;101147.47;;;25.11;100.00
9249;BME280;4660;41.768;26.198;2023-06-22T06:28:06;101149.75;;;25.39;100.00
9249;BME280;4660;41.768;26.198;2023-06-22T06:30:32;101144.44;;;25.56;100.00
9249;BME280;4660;41.768;26.198;2023-06-22T06:32:57;101162.06;;;25.91;100.00
9249;BME280;4660;41.768;26.198;2023-06-22T06:35:23;101171.75;;;26.12;100.00
9249;BME280;4660;41.768;26.198;2023-06-22T06:37:50;101159.88;;;26.12;100.00
9249;BME280;4660;41.768;26.198;2023-06-22T06:40:17;101158.06;;;26.05;100.00
9249;BME280;4660;41.768;26.198;2023-06-22T06:42:44;101157.59;;;26.09;100.00
9249;BME280;4660;41.768;26.198;2023-06-22T06:45:23;101158.28;;;26.22;100.00
9249;BME280;4660;41.768;26.198;2023-06-22T06:47:50;101161.28;;;26.32;100.00
9249;BME280;4660;41.768;26.198;2023-06-22T06:50:16;101156.94;;;26.25;100.00
9249;BME280;4660;41.768;26.198;2023-06-22T06:52:43;101156.75;;;26.38;100.00
9249;BME280;4660;41.768;26.198;2023-06-22T06:55:09;101153.91;;;26.86;100.00
9249;BME280;4660;41.768;26.198;2023-06-22T06:57:38;101161.44;;;26.91;100.00
9249;BME280;4660;41.768;26.198;2023-06-22T07:00:11;101174.22;;;27.27;100.00
9249;BME280;4660;41.768;26.198;2023-06-22T07:02:43;101158.47;;;27.28;100.00
9249;BME280;4660;41.768;26.198;2023-06-22T07:05:13;101174.22;;;27.27;100.00
9249;BME280;4660;41.768;26.198;2023-06-22T07:07:44;101163.28;;;27.21;100.00
9249;BME280;4660;41.768;26.198;2023-06-22T07:10:10;101166.75;;;27.28;100.00
9249;BME280;4660;41.768;26.198;2023-06-22T07:12:36;101139.63;;;27.01;100.00
9249;BME280;4660;41.768;26.198;2023-06-22T07:15:07;101166.28;;;27.42;100.00
9249;BME280;4660;41.768;26.198;2023-06-22T07:17:38;101146.00;;;27.25;100.00
9249;BME280;4660;41.768;26.198;2023-06-22T07:20:07;101145.41;;;27.23;100.00
9249;BME280;4660;41.768;26.198;2023-06-22T07:22:42;101133.03;;;27.37;100.00
9249;BME280;4660;41.768;26.198;2023-06-22T07:25:10;101140.81;;;27.52;100.00
9249;BME280;4660;41.768;26.198;2023-06-22T07:27:43;101142.22;;;27.66;100.00
9249;BME280;4660;41.768;26.198;2023-06-22T07:30:13;101125.75;;;27.72;100.00
9249;BME280;4660;41.768;26.198;2023-06-22T07:32:40;101110.94;;;27.78;100.00
9249;BME280;4660;41.768;26.198;2023-06-22T07:35:06;101127.50;;;27.89;100.00
9249;BME280;4660;41.768;26.198;2023-06-22T07:37:32;101152.00;;;27.97;100.00
9249;BME280;4660;41.768;26.198;2023-06-22T07:39:59;101143.25;;;28.17;100.00
9249;BME280;4660;41.768;26.198;2023-06-22T07:42:25;101150.22;;;28.48;100.00
9249;BME280;4660;41.768;26.198;2023-06-22T07:44:51;101153.34;;;28.52;100.00
9249;BME280;4660;41.768;26.198;2023-06-22T07:47:17;101140.66;;;28.56;100.00
9249;BME280;4660;41.768;26.198;2023-06-22T07:49:46;101147.97;;;28.62;100.00
9249;BME280;4660;41.768;26.198;2023-06-22T07:52:12;101144.78;;;28.54;100.00
9249;BME280;4660;41.768;26.198;2023-06-22T07:54:38;101118.22;;;28.24;100.00
9249;BME280;4660;41.768;26.198;2023-06-22T07:57:05;101120.63;;;28.20;100.00
9249;BME280;4660;41.768;26.198;2023-06-22T07:59:30;101148.97;;;28.39;100.00
9249;BME280;4660;41.768;26.198;2023-06-22T08:01:56;101148.38;;;28.71;100.00
9249;BME280;4660;41.768;26.198;2023-06-22T08:04:21;101154.84;;;28.76;100.00
9249;BME280;4660;41.768;26.198;2023-06-22T08:06:47;101156.59;;;28.94;100.00
9249;BME280;4660;41.768;26.198;2023-06-22T08:09:12;101155.44;;;28.78;100.00
9249;BME280;4660;41.768;26.198;2023-06-22T08:11:38;101152.34;;;28.75;100.00
9249;BME280;4660;41.768;26.198;2023-06-22T08:14:04;101143.78;;;28.60;100.00
9249;BME280;4660;41.768;26.198;2023-06-22T08:16:29;101151.56;;;28.63;100.00
9249;BME280;4660;41.768;26.198;2023-06-22T08:18:55;101148.22;;;28.61;100.00
9249;BME280;4660;41.768;26.198;2023-06-22T08:21:20;101142.78;;;28.83;100.00
9249;BME280;4660;41.768;26.198;2023-06-22T08:23:47;101143.63;;;29.17;100.00
9249;BME280;4660;41.768;26.198;2023-06-22T08:26:14;101148.19;;;29.45;100.00
9249;BME280;4660;41.768;26.198;2023-06-22T08:28:40;101131.19;;;29.19;100.00
9249;BME280;4660;41.768;26.198;2023-06-22T08:31:05;101136.88;;;29.29;100.00
9249;BME280;4660;41.768;26.198;2023-06-22T08:33:31;101124.47;;;29.15;100.00
9249;BME280;4660;41.768;26.198;2023-06-22T08:35:58;101128.63;;;29.34;100.00
9249;BME280;4660;41.768;26.198;2023-06-22T08:38:23;101140.53;;;29.35;100.00
9249;BME280;4660;41.768;26.198;2023-06-22T08:40:50;101138.03;;;29.33;100.00
9249;BME280;4660;41.768;26.198;2023-06-22T08:43:15;101134.69;;;29.31;100.00
9249;BME280;4660;41.768;26.198;2023-06-22T08:45:41;101138.81;;;29.68;100.00
9249;BME280;4660;41.768;26.198;2023-06-22T08:48:07;101145.75;;;30.14;100.00
9249;BME280;4660;41.768;26.198;2023-06-22T08:50:33;101132.19;;;30.18;100.00
9249;BME280;4660;41.768;26.198;2023-06-22T08:53:01;101122.97;;;30.39;100.00
9249;BME280;4660;41.768;26.198;2023-06-22T08:55:33;101113.78;;;30.65;100.00
9249;BME280;4660;41.768;26.198;2023-06-22T08:58:01;101130.69;;;30.64;100.00
9249;BME280;4660;41.768;26.198;2023-06-22T09:00:27;101127.06;;;30.63;100.00
9249;BME280;4660;41.768;26.198;2023-06-22T09:02:55;101130.66;;;30.91;100.00
9249;BME280;4660;41.768;26.198;2023-06-22T09:05:24;101132.53;;;30.85;100.00
9249;BME280;4660;41.768;26.198;2023-06-22T09:08:13;101118.97;;;30.89;100.00
9249;BME280;4660;41.768;26.198;2023-06-22T09:10:39;101130.47;;;31.03;100.00
9249;BME280;4660;41.768;26.198;2023-06-22T09:13:04;101124.69;;;31.14;100.00
9249;BME280;4660;41.768;26.198;2023-06-22T09:15:30;101124.56;;;31.31;100.00
9249;BME280;4660;41.768;26.198;2023-06-22T09:17:55;101126.84;;;31.49;100.00
9249;BME280;4660;41.768;26.198;2023-06-22T09:20:22;101134.69;;;31.58;96.96
9249;BME280;4660;41.768;26.198;2023-06-22T09:22:48;101120.19;;;31.45;98.01
9249;BME280;4660;41.768;26.198;2023-06-22T09:25:13;101108.66;;;31.79;95.49
9249;BME280;4660;41.768;26.198;2023-06-22T09:27:42;101107.09;;;32.09;94.61
9249;BME280;4660;41.768;26.198;2023-06-22T09:30:08;101102.56;;;31.82;91.31
9249;BME280;4660;41.768;26.198;2023-06-22T09:32:52;101090.50;;;31.66;92.08
9249;BME280;4660;41.768;26.198;2023-06-22T09:35:17;101103.38;;;31.83;94.30
9249;BME280;4660;41.768;26.198;2023-06-22T09:37:43;101100.72;;;31.50;94.79
9249;BME280;4660;41.768;26.198;2023-06-22T09:40:08;101105.38;;;31.30;97.28
9249;BME280;4660;41.768;26.198;2023-06-22T09:42:36;101095.91;;;31.31;98.26
9249;BME280;4660;41.768;26.198;2023-06-22T09:45:02;101113.97;;;31.28;98.41
9249;BME280;4660;41.768;26.198;2023-06-22T09:47:29;101106.28;;;31.45;96.64
9249;BME280;4660;41.768;26.198;2023-06-22T09:49:54;101102.00;;;31.28;95.93
9249;BME280;4660;41.768;26.198;2023-06-22T09:52:21;101092.75;;;31.17;95.74
9249;BME280;4660;41.768;26.198;2023-06-22T09:54:47;101105.09;;;31.36;96.84
9249;BME280;4660;41.768;26.198;2023-06-22T09:57:12;101096.31;;;31.65;92.11
9249;BME280;4660;41.768;26.198;2023-06-22T09:59:38;101099.78;;;31.82;90.37
9249;BME280;4660;41.768;26.198;2023-06-22T10:02:06;101105.38;;;31.97;90.72
9249;BME280;4660;41.768;26.198;2023-06-22T10:04:33;101092.84;;;31.95;89.48
9249;BME280;4660;41.768;26.198;2023-06-22T10:06:58;101085.31;;;31.80;90.56
9249;BME280;4660;41.768;26.198;2023-06-22T10:09:24;101094.25;;;32.08;90.32
9249;BME280;4660;41.768;26.198;2023-06-22T10:11:50;101087.00;;;32.07;87.74
9249;BME280;4660;41.768;26.198;2023-06-22T10:14:15;101084.28;;;32.42;87.14
9249;BME280;4660;41.768;26.198;2023-06-22T10:16:42;101090.97;;;32.56;85.40
9249;BME280;4660;41.768;26.198;2023-06-22T10:19:07;101091.81;;;32.47;85.05
9249;BME280;4660;41.768;26.198;2023-06-22T10:21:33;101089.31;;;32.50;83.75
9249;BME280;4660;41.768;26.198;2023-06-22T10:23:59;101094.03;;;32.85;82.91
9249;BME280;4660;41.768;26.198;2023-06-22T10:26:34;101080.00;;;33.31;82.51
9249;BME280;4660;41.768;26.198;2023-06-22T10:29:02;101088.19;;;32.92;82.31
9249;BME280;4660;41.768;26.198;2023-06-22T10:31:28;101080.34;;;32.99;83.54
9249;BME280;4660;41.768;26.198;2023-06-22T10:33:55;101082.56;;;33.12;81.23
9249;BME280;4660;41.768;26.198;2023-06-22T10:36:21;101083.72;;;32.76;80.82
9249;BME280;4660;41.768;26.198;2023-06-22T10:38:47;101083.19;;;32.58;80.15
9249;BME280;4660;41.768;26.198;2023-06-22T10:41:13;101082.91;;;32.65;83.86
9249;BME280;4660;41.768;26.198;2023-06-22T10:43:38;101070.34;;;32.78;81.54
9249;BME280;4660;41.768;26.198;2023-06-22T10:46:04;101069.78;;;32.71;80.04
9249;BME280;4660;41.768;26.198;2023-06-22T10:48:30;101051.13;;;32.61;79.87
9249;BME280;4660;41.768;26.198;2023-06-22T10:50:55;101052.22;;;32.91;77.63
9249;BME280;4660;41.768;26.198;2023-06-22T10:53:21;101058.06;;;33.04;78.56
9249;BME280;4660;41.768;26.198;2023-06-22T10:55:47;101055.75;;;33.27;79.51
9249;BME280;4660;41.768;26.198;2023-06-22T10:58:13;101054.66;;;33.23;77.62
9249;BME280;4660;41.768;26.198;2023-06-22T11:00:38;101038.50;;;33.14;74.08
9249;BME280;4660;41.768;26.198;2023-06-22T11:03:04;101050.16;;;33.27;73.66
9249;BME280;4660;41.768;26.198;2023-06-22T11:05:30;101045.41;;;33.32;74.97
9249;BME280;4660;41.768;26.198;2023-06-22T11:07:55;101046.13;;;33.63;71.48
9249;BME280;4660;41.768;26.198;2023-06-22T11:10:21;101021.78;;;33.74;64.64
9249;BME280;4660;41.768;26.198;2023-06-22T11:12:47;101048.81;;;33.79;67.61
9249;BME280;4660;41.768;26.198;2023-06-22T11:15:12;101041.19;;;33.35;70.43
9249;BME280;4660;41.768;26.198;2023-06-22T11:17:38;101038.56;;;33.64;67.31
9249;BME280;4660;41.768;26.198;2023-06-22T11:20:04;101041.63;;;33.67;66.18
9249;BME280;4660;41.768;26.198;2023-06-22T11:22:39;101013.81;;;33.52;63.75
9249;BME280;4660;41.768;26.198;2023-06-22T11:25:06;101026.19;;;33.26;65.11
9249;BME280;4660;41.768;26.198;2023-06-22T11:27:32;101006.16;;;33.13;64.67
9249;BME280;4660;41.768;26.198;2023-06-22T11:29:57;101039.41;;;33.64;64.59
9249;BME280;4660;41.768;26.198;2023-06-22T11:32:23;101033.19;;;33.78;60.90
9249;BME280;4660;41.768;26.198;2023-06-22T11:34:49;101026.13;;;33.96;59.51
9249;BME280;4660;41.768;26.198;2023-06-22T11:37:15;101040.19;;;34.19;49.84
9249;BME280;4660;41.768;26.198;2023-06-22T11:39:41;101035.56;;;34.44;49.40
9249;BME280;4660;41.768;26.198;2023-06-22T11:42:07;101030.84;;;34.34;47.19
9249;BME280;4660;41.768;26.198;2023-06-22T11:44:33;101043.88;;;34.49;49.43
9249;BME280;4660;41.768;26.198;2023-06-22T11:46:59;101034.44;;;34.40;47.95
9249;BME280;4660;41.768;26.198;2023-06-22T11:49:26;101025.28;;;34.29;49.88
9249;BME280;4660;41.768;26.198;2023-06-22T11:51:52;101019.47;;;34.26;48.86
9249;BME280;4660;41.768;26.198;2023-06-22T11:54:18;101025.09;;;34.20;49.09
9249;BME280;4660;41.768;26.198;2023-06-22T11:56:43;101025.56;;;34.33;49.63
9249;BME280;4660;41.768;26.198;2023-06-22T11:59:09;101018.53;;;34.35;50.31
9249;BME280;4660;41.768;26.198;2023-06-22T12:01:35;101023.66;;;34.57;49.11
9249;BME280;4660;41.768;26.198;2023-06-22T12:04:01;101014.66;;;34.65;48.52
9249;BME280;4660;41.768;26.198;2023-06-22T12:06:26;101005.72;;;34.92;44.72
9249;BME280;4660;41.768;26.198;2023-06-22T12:08:52;101018.88;;;35.16;42.39
9249;BME280;4660;41.768;26.198;2023-06-22T12:11:17;101036.03;;;34.80;42.51
9249;BME280;4660;41.768;26.198;2023-06-22T12:13:43;101008.44;;;34.44;44.08
9249;BME280;4660;41.768;26.198;2023-06-22T12:16:08;100994.22;;;34.41;44.19
9249;BME280;4660;41.768;26.198;2023-06-22T12:18:34;101022.16;;;34.70;43.58
9249;BME280;4660;41.768;26.198;2023-06-22T12:20:59;101014.34;;;34.96;42.93
9249;BME280;4660;41.768;26.198;2023-06-22T12:23:25;101005.06;;;35.00;42.14
9249;BME280;4660;41.768;26.198;2023-06-22T12:25:51;101013.69;;;35.04;42.76
9249;BME280;4660;41.768;26.198;2023-06-22T12:28:16;101017.91;;;35.25;40.42
9249;BME280;4660;41.768;26.198;2023-06-22T12:30:42;100985.50;;;35.43;41.23
9249;BME280;4660;41.768;26.198;2023-06-22T12:33:08;101016.91;;;35.35;41.82
9249;BME280;4660;41.768;26.198;2023-06-22T12:35:34;101016.91;;;35.16;42.59
9249;BME280;4660;41.768;26.198;2023-06-22T12:38:00;100987.19;;;34.72;42.84
9249;BME280;4660;41.768;26.198;2023-06-22T12:40:25;101020.72;;;35.01;42.99
9249;BME280;4660;41.768;26.198;2023-06-22T12:42:51;101017.38;;;35.23;43.73
9249;BME280;4660;41.768;26.198;2023-06-22T12:45:17;101017.75;;;35.17;41.49
9249;BME280;4660;41.768;26.198;2023-06-22T12:47:43;101004.69;;;35.07;40.71
9249;BME280;4660;41.768;26.198;2023-06-22T12:50:08;100994.06;;;35.28;41.20
9249;BME280;4660;41.768;26.198;2023-06-22T12:52:36;100992.47;;;35.83;41.33
9249;BME280;4660;41.768;26.198;2023-06-22T12:55:05;101006.88;;;35.96;41.32